createdAt,value
2023-05-12T00:00:52.275Z,13.28
2023-05-12T00:03:20.663Z,13.22
2023-05-12T00:05:48.893Z,13.15
2023-05-12T00:08:17.196Z,13.14
2023-05-12T00:10:45.454Z,13.11
2023-05-12T00:13:13.623Z,13.09
2023-05-12T00:15:41.746Z,13.03
2023-05-12T00:18:10.566Z,12.99
2023-05-12T00:20:38.764Z,12.95
2023-05-12T00:23:06.950Z,12.94
2023-05-12T00:25:35.392Z,12.90
2023-05-12T00:28:03.524Z,12.89
2023-05-12T00:30:31.838Z,12.84
2023-05-12T00:32:59.986Z,12.85
2023-05-12T00:35:28.305Z,12.82
2023-05-12T00:37:56.524Z,12.79
2023-05-12T00:40:24.735Z,12.75
2023-05-12T00:42:53.021Z,12.54
2023-05-12T00:45:21.989Z,12.64
2023-05-12T00:47:52.439Z,12.58
2023-05-12T00:50:21.641Z,12.55
2023-05-12T00:52:50.099Z,12.54
2023-05-12T00:55:18.798Z,12.53
2023-05-12T00:57:47.060Z,12.50
2023-05-12T01:00:16.638Z,12.48
2023-05-12T01:02:46.625Z,12.46
2023-05-12T01:05:15.208Z,12.43
2023-05-12T01:07:46.800Z,12.40
2023-05-12T01:10:21.893Z,12.39
2023-05-12T01:12:50.617Z,12.37
2023-05-12T01:15:19.863Z,12.36
2023-05-12T01:18:01.699Z,12.34
2023-05-12T01:20:32.115Z,12.25
2023-05-12T01:23:02.199Z,12.29
2023-05-12T01:25:33.276Z,12.26
2023-05-12T01:28:04.374Z,12.23
2023-05-12T01:30:34.580Z,12.12
2023-05-12T01:33:03.661Z,12.18
2023-05-12T01:35:32.115Z,12.16
2023-05-12T01:38:02.239Z,12.14
2023-05-12T01:40:30.894Z,12.13
2023-05-12T01:42:59.136Z,12.11
2023-05-12T01:45:30.991Z,12.08
2023-05-12T01:47:59.214Z,12.04
2023-05-12T01:50:27.982Z,12.02
2023-05-12T01:52:56.426Z,11.99
2023-05-12T01:55:24.609Z,11.96
2023-05-12T01:57:55.899Z,11.90
2023-05-12T02:00:24.279Z,11.89
2023-05-12T02:02:52.893Z,11.88
2023-05-12T02:05:21.266Z,11.87
2023-05-12T02:07:50.621Z,11.86
2023-05-12T02:10:18.920Z,11.84
2023-05-12T02:12:47.717Z,11.83
2023-05-12T02:15:16.130Z,11.81
2023-05-12T02:17:46.240Z,11.78
2023-05-12T02:20:14.868Z,11.79
2023-05-12T02:22:44.351Z,11.80
2023-05-12T02:25:12.500Z,11.79
2023-05-12T02:27:40.868Z,11.77
2023-05-12T02:30:09.725Z,11.75
2023-05-12T02:32:38.465Z,11.74
2023-05-12T02:35:08.290Z,11.73
2023-05-12T02:37:36.991Z,11.58
2023-05-12T02:40:08.436Z,11.72
2023-05-12T02:42:38.515Z,11.72
2023-05-12T02:45:07.483Z,11.72
2023-05-12T02:47:36.474Z,11.70
2023-05-12T02:50:05.788Z,11.68
2023-05-12T02:52:34.327Z,11.67
2023-05-12T02:55:02.790Z,11.67
2023-05-12T02:57:34.165Z,11.67
2023-05-12T03:00:06.163Z,11.66
2023-05-12T03:02:37.421Z,11.65
2023-05-12T03:05:06.254Z,11.64
2023-05-12T03:07:35.160Z,11.63
2023-05-12T03:10:03.411Z,11.63
2023-05-12T03:12:32.237Z,11.63
2023-05-12T03:15:00.526Z,11.63
2023-05-12T03:17:28.711Z,11.64
2023-05-12T03:19:57.026Z,11.66
2023-05-12T03:22:25.185Z,11.67
2023-05-12T03:24:53.317Z,11.67
2023-05-12T03:27:21.964Z,11.71
2023-05-12T03:29:50.261Z,11.71
2023-05-12T03:32:18.719Z,11.71
2023-05-12T03:34:46.829Z,11.71
2023-05-12T03:37:16.360Z,11.71
2023-05-12T03:39:46.154Z,11.71
2023-05-12T03:42:14.782Z,11.69
2023-05-12T03:44:43.888Z,11.73
2023-05-12T03:47:12.651Z,11.76
2023-05-12T03:49:41.209Z,11.77
2023-05-12T03:52:09.399Z,11.79
2023-05-12T03:54:37.985Z,11.80
2023-05-12T03:57:06.871Z,11.85
2023-05-12T03:59:35.041Z,11.89
2023-05-12T04:02:03.489Z,11.91
2023-05-12T04:04:31.613Z,11.96
2023-05-12T04:07:00.279Z,12.00
2023-05-12T04:09:31.009Z,12.04
2023-05-12T04:11:59.275Z,12.08
2023-05-12T04:14:39.054Z,12.12
2023-05-12T04:17:10.823Z,12.14
2023-05-12T04:19:39.034Z,12.16
2023-05-12T04:22:07.232Z,12.19
2023-05-12T04:24:37.687Z,12.22
2023-05-12T04:27:06.950Z,12.27
2023-05-12T04:29:36.366Z,12.32
2023-05-12T04:32:04.885Z,12.36
2023-05-12T04:34:33.938Z,12.40
2023-05-12T04:37:02.273Z,12.44
2023-05-12T04:39:31.469Z,12.48
2023-05-12T04:42:02.871Z,12.52
2023-05-12T04:44:33.603Z,12.56
2023-05-12T04:47:02.272Z,12.61
2023-05-12T04:49:31.805Z,12.66
2023-05-12T04:51:59.913Z,12.71
2023-05-12T04:54:28.055Z,12.75
2023-05-12T04:56:57.146Z,12.80
2023-05-12T04:59:25.266Z,12.84
2023-05-12T05:01:54.969Z,12.89
2023-05-12T05:04:23.299Z,12.95
2023-05-12T05:06:51.663Z,13.01
2023-05-12T05:09:21.352Z,13.05
2023-05-12T05:11:49.628Z,13.10
2023-05-12T05:14:18.142Z,13.15
2023-05-12T05:16:46.829Z,13.22
2023-05-12T05:19:23.019Z,13.25
2023-05-12T05:22:05.105Z,13.27
2023-05-12T05:24:34.560Z,13.32
2023-05-12T05:27:02.775Z,13.39
2023-05-12T05:29:30.859Z,13.43
2023-05-12T05:31:59.162Z,13.48
2023-05-12T05:34:27.436Z,13.54
2023-05-12T05:36:56.573Z,13.65
2023-05-12T05:39:25.396Z,13.74
2023-05-12T05:41:53.630Z,13.84
2023-05-12T05:44:22.335Z,13.90
2023-05-12T05:46:51.128Z,13.98
2023-05-12T05:49:19.488Z,14.06
2023-05-12T05:51:48.532Z,14.13
2023-05-12T05:54:17.030Z,14.20
2023-05-12T05:56:46.116Z,14.17
2023-05-12T05:59:14.468Z,14.30
2023-05-12T06:01:42.613Z,14.38
2023-05-12T06:04:12.071Z,14.45
2023-05-12T06:06:40.318Z,14.53
2023-05-12T06:09:09.738Z,14.58
2023-05-12T06:11:38.487Z,14.66
2023-05-12T06:14:06.672Z,15.00
2023-05-12T06:16:34.915Z,14.91
2023-05-12T06:19:03.232Z,14.89
2023-05-12T06:21:32.376Z,15.43
2023-05-12T06:24:00.846Z,15.64
2023-05-12T06:26:29.022Z,15.49
2023-05-12T06:28:57.410Z,15.76
2023-05-12T06:31:25.835Z,15.59
2023-05-12T06:33:54.169Z,16.05
2023-05-12T06:36:22.797Z,15.78
2023-05-12T06:38:51.240Z,16.18
2023-05-12T06:41:19.404Z,16.03
2023-05-12T06:43:48.260Z,16.43
2023-05-12T06:46:16.470Z,16.16
2023-05-12T06:48:45.110Z,16.80
2023-05-12T06:51:13.743Z,16.86
2023-05-12T06:53:42.122Z,16.31
2023-05-12T06:56:11.743Z,16.23
2023-05-12T06:58:39.819Z,16.26
2023-05-12T07:01:08.218Z,16.24
2023-05-12T07:03:36.790Z,16.46
2023-05-12T07:06:05.055Z,16.53
2023-05-12T07:08:33.254Z,16.51
2023-05-12T07:11:01.711Z,16.86
2023-05-12T07:13:30.083Z,16.84
2023-05-12T07:15:58.164Z,16.80
2023-05-12T07:18:26.563Z,16.79
2023-05-12T07:20:54.796Z,16.81
2023-05-12T07:23:22.975Z,17.20
2023-05-12T07:25:51.239Z,17.39
2023-05-12T07:28:19.403Z,17.14
2023-05-12T07:30:47.737Z,17.28
2023-05-12T07:33:16.359Z,17.43
2023-05-12T07:35:44.840Z,17.30
2023-05-12T07:38:13.423Z,17.33
2023-05-12T07:40:41.593Z,17.38
2023-05-12T07:43:09.708Z,17.51
2023-05-12T07:45:38.354Z,18.05
2023-05-12T07:48:06.913Z,17.80
2023-05-12T07:50:35.325Z,17.77
2023-05-12T07:53:04.816Z,17.78
2023-05-12T07:55:33.956Z,17.77
2023-05-12T07:58:02.607Z,18.17
2023-05-12T08:00:30.900Z,17.91
2023-05-12T08:02:59.320Z,17.97
2023-05-12T08:05:27.558Z,18.04
2023-05-12T08:07:55.798Z,18.23
2023-05-12T08:10:27.795Z,18.36
2023-05-12T08:12:56.747Z,18.52
2023-05-12T08:15:25.019Z,18.99
2023-05-12T08:17:53.222Z,18.93
2023-05-12T08:20:21.625Z,18.85
2023-05-12T08:22:51.015Z,18.92
2023-05-12T08:25:19.481Z,19.00
2023-05-12T08:27:47.715Z,19.07
2023-05-12T08:30:16.132Z,19.28
2023-05-12T08:32:44.424Z,19.63
2023-05-12T08:35:12.655Z,19.36
2023-05-12T08:37:41.302Z,19.36
2023-05-12T08:40:19.311Z,19.38
2023-05-12T08:43:02.041Z,19.46
2023-05-12T08:45:30.305Z,19.94
2023-05-12T08:47:59.698Z,19.62
2023-05-12T08:50:30.321Z,19.65
2023-05-12T08:52:59.140Z,19.70
2023-05-12T08:55:31.811Z,19.79
2023-05-12T08:58:03.659Z,20.26
2023-05-12T09:00:33.211Z,20.42
2023-05-12T09:03:05.585Z,20.35
2023-05-12T09:05:34.881Z,20.57
2023-05-12T09:08:03.413Z,20.62
2023-05-12T09:10:35.005Z,20.75
2023-05-12T09:13:17.525Z,20.87
2023-05-12T09:15:48.789Z,21.46
2023-05-12T09:18:16.973Z,21.22
2023-05-12T09:20:45.099Z,21.31
2023-05-12T09:23:22.161Z,21.53
2023-05-12T09:26:01.376Z,22.25
2023-05-12T09:28:37.400Z,22.69
2023-05-12T09:31:34.998Z,22.50
2023-05-12T09:34:08.722Z,22.91
2023-05-12T09:36:36.864Z,22.79
2023-05-12T09:39:07.519Z,23.07
2023-05-12T09:41:41.179Z,23.25
2023-05-12T09:44:10.296Z,23.08
2023-05-12T09:46:41.449Z,23.60
2023-05-12T09:49:09.656Z,23.69
2023-05-12T09:51:38.098Z,23.75
2023-05-12T09:54:07.851Z,24.30
2023-05-12T09:56:38.256Z,24.20
2023-05-12T09:59:06.481Z,24.53
2023-05-12T10:01:34.981Z,24.88
2023-05-12T10:04:07.719Z,24.56
2023-05-12T10:06:42.270Z,24.75
2023-05-12T10:09:20.786Z,24.92
2023-05-12T10:11:53.794Z,25.00
2023-05-12T10:14:23.477Z,24.92
2023-05-12T10:16:52.308Z,24.92
2023-05-12T10:19:21.618Z,24.94
2023-05-12T10:21:50.105Z,25.33
2023-05-12T10:24:18.719Z,25.76
2023-05-12T10:26:47.704Z,25.55
2023-05-12T10:29:17.929Z,25.74
2023-05-12T10:31:46.984Z,25.40
2023-05-12T10:34:19.405Z,25.44
2023-05-12T10:36:50.857Z,25.25
2023-05-12T10:39:19.633Z,24.97
2023-05-12T10:41:47.805Z,25.14
2023-05-12T10:44:27.625Z,25.26
2023-05-12T10:47:02.201Z,25.04
2023-05-12T10:49:40.580Z,25.54
2023-05-12T10:52:11.901Z,25.43
2023-05-12T10:54:44.713Z,25.63
2023-05-12T10:57:18.324Z,25.48
2023-05-12T10:59:52.995Z,25.18
2023-05-12T11:02:31.425Z,25.22
2023-05-12T11:05:02.873Z,25.35
2023-05-12T11:07:35.354Z,25.67
2023-05-12T11:10:05.879Z,25.88
2023-05-12T11:12:38.311Z,25.91
2023-05-12T11:15:07.563Z,26.08
2023-05-12T11:17:41.215Z,26.07
2023-05-12T11:20:12.330Z,26.12
2023-05-12T11:22:42.854Z,26.14
2023-05-12T11:25:12.546Z,26.37
2023-05-12T11:27:47.738Z,26.30
2023-05-12T11:30:16.488Z,26.04
2023-05-12T11:32:44.697Z,26.36
2023-05-12T11:35:16.017Z,26.47
2023-05-12T11:37:45.914Z,26.59
2023-05-12T11:40:23.023Z,26.66
2023-05-12T11:42:53.024Z,26.82
2023-05-12T11:45:22.238Z,26.93
2023-05-12T11:47:51.342Z,27.09
2023-05-12T11:50:24.440Z,27.11
2023-05-12T11:52:53.465Z,27.23
2023-05-12T11:55:24.188Z,27.32
2023-05-12T11:58:04.370Z,27.61
2023-05-12T12:00:35.743Z,27.55
2023-05-12T12:03:12.754Z,27.68
2023-05-12T12:05:42.735Z,27.69
2023-05-12T12:08:16.795Z,27.66
2023-05-12T12:10:46.737Z,27.63
2023-05-12T12:13:22.424Z,27.60
2023-05-12T12:15:51.370Z,27.74
2023-05-12T12:18:19.651Z,27.86
2023-05-12T12:20:47.854Z,28.03
2023-05-12T12:23:16.056Z,27.96
2023-05-12T12:25:44.231Z,27.94
2023-05-12T12:28:13.183Z,27.76
2023-05-12T12:30:41.322Z,27.61
2023-05-12T12:33:09.446Z,27.79
2023-05-12T12:35:37.620Z,27.91
2023-05-12T12:38:05.801Z,27.85
2023-05-12T12:40:34.076Z,28.01
2023-05-12T12:43:02.330Z,28.08
2023-05-12T12:45:30.640Z,28.11
2023-05-12T12:47:58.761Z,28.10
2023-05-12T12:50:27.518Z,28.07
2023-05-12T12:52:55.684Z,27.70
2023-05-12T12:55:24.268Z,27.53
2023-05-12T12:57:52.822Z,27.59
2023-05-12T13:00:23.558Z,27.70
2023-05-12T13:02:52.149Z,27.77
2023-05-12T13:05:20.953Z,27.96
2023-05-12T13:07:49.506Z,28.09
2023-05-12T13:10:18.293Z,28.28
2023-05-12T13:12:46.570Z,28.53
2023-05-12T13:15:14.906Z,28.47
2023-05-12T13:17:43.195Z,28.30
2023-05-12T13:20:11.881Z,28.33
2023-05-12T13:22:41.310Z,28.55
2023-05-12T13:25:11.295Z,28.44
2023-05-12T13:27:39.471Z,28.32
2023-05-12T13:30:08.294Z,28.37
2023-05-12T13:32:36.576Z,28.49
2023-05-12T13:35:05.198Z,28.39
2023-05-12T13:37:33.333Z,28.33
2023-05-12T13:40:01.797Z,28.37
2023-05-12T13:42:30.379Z,28.42
2023-05-12T13:44:58.545Z,28.55
2023-05-12T13:47:27.512Z,28.48
2023-05-12T13:49:56.669Z,28.35
2023-05-12T13:52:24.809Z,28.38
2023-05-12T13:54:53.131Z,28.33
2023-05-12T13:57:21.524Z,28.33
2023-05-12T13:59:50.752Z,28.25
2023-05-12T14:02:18.953Z,28.35
2023-05-12T14:04:47.203Z,28.49
2023-05-12T14:07:15.511Z,28.44
2023-05-12T14:09:43.788Z,28.44
2023-05-12T14:12:12.105Z,28.15
2023-05-12T14:14:40.322Z,27.89
2023-05-12T14:17:08.588Z,27.91
2023-05-12T14:19:36.941Z,28.08
2023-05-12T14:22:12.511Z,28.34
2023-05-12T14:24:47.047Z,28.31
2023-05-12T14:27:15.365Z,28.44
2023-05-12T14:29:43.717Z,28.40
2023-05-12T14:32:11.970Z,28.37
2023-05-12T14:34:40.347Z,28.35
2023-05-12T14:37:08.603Z,28.33
2023-05-12T14:39:36.835Z,28.19
2023-05-12T14:42:05.138Z,28.02
2023-05-12T14:44:33.300Z,28.12
2023-05-12T14:47:01.494Z,28.10
2023-05-12T14:49:29.619Z,27.89
2023-05-12T14:51:57.781Z,27.81
2023-05-12T14:54:26.232Z,27.87
2023-05-12T14:56:54.918Z,27.67
2023-05-12T14:59:23.193Z,27.88
2023-05-12T15:01:51.361Z,28.07
2023-05-12T15:04:19.609Z,28.12
2023-05-12T15:06:47.817Z,28.03
2023-05-12T15:09:16.307Z,28.09
2023-05-12T15:11:47.115Z,27.87
2023-05-12T15:14:15.436Z,27.69
2023-05-12T15:16:43.830Z,27.62
2023-05-12T15:19:12.297Z,27.36
2023-05-12T15:21:40.578Z,27.26
2023-05-12T15:24:08.919Z,27.07
2023-05-12T15:26:39.752Z,27.01
2023-05-12T15:29:08.780Z,27.09
2023-05-12T15:31:37.279Z,27.28
2023-05-12T15:34:05.656Z,27.38
2023-05-12T15:36:34.104Z,27.35
2023-05-12T15:39:04.025Z,27.39
2023-05-12T15:41:33.010Z,27.48
2023-05-12T15:44:01.095Z,27.22
2023-05-12T15:46:29.361Z,27.04
2023-05-12T15:48:58.444Z,27.10
2023-05-12T15:51:27.152Z,27.09
2023-05-12T15:53:55.418Z,27.07
2023-05-12T15:56:23.870Z,26.88
2023-05-12T15:58:52.020Z,26.89
2023-05-12T16:01:20.285Z,26.88
2023-05-12T16:03:50.822Z,26.86
2023-05-12T16:06:19.553Z,26.71
2023-05-12T16:08:48.365Z,26.57
2023-05-12T16:11:16.881Z,26.39
2023-05-12T16:13:46.389Z,25.93
2023-05-12T16:16:14.722Z,25.51
2023-05-12T16:18:43.841Z,25.11
2023-05-12T16:21:13.000Z,24.79
2023-05-12T16:23:41.509Z,24.53
2023-05-12T16:26:09.759Z,24.32
2023-05-12T16:28:37.940Z,24.17
2023-05-12T16:31:06.050Z,23.97
2023-05-12T16:33:34.411Z,23.78
2023-05-12T16:36:02.518Z,23.58
2023-05-12T16:38:32.584Z,23.54
2023-05-12T16:41:00.886Z,23.48
2023-05-12T16:43:28.996Z,23.32
2023-05-12T16:46:04.282Z,23.18
2023-05-12T16:48:35.392Z,23.11
2023-05-12T16:51:06.339Z,23.07
2023-05-12T16:53:35.533Z,22.92
2023-05-12T16:56:04.312Z,22.80
2023-05-12T16:58:32.497Z,22.61
2023-05-12T17:01:01.882Z,22.40
2023-05-12T17:03:30.555Z,22.33
2023-05-12T17:05:58.902Z,22.24
2023-05-12T17:08:27.094Z,22.10
2023-05-12T17:10:55.257Z,21.90
2023-05-12T17:13:23.376Z,21.90
2023-05-12T17:15:51.556Z,21.87
2023-05-12T17:18:19.807Z,21.82
2023-05-12T17:20:48.236Z,21.74
2023-05-12T17:23:16.784Z,21.70
2023-05-12T17:25:44.890Z,21.66
2023-05-12T17:28:13.299Z,21.63
2023-05-12T17:30:41.703Z,21.56
2023-05-12T17:33:09.908Z,21.52
2023-05-12T17:35:38.035Z,21.50
2023-05-12T17:38:06.209Z,21.49
2023-05-12T17:40:34.477Z,21.44
2023-05-12T17:43:02.595Z,21.35
2023-05-12T17:45:30.848Z,21.27
2023-05-12T17:47:59.847Z,21.19
2023-05-12T17:50:27.990Z,21.12
2023-05-12T17:52:56.191Z,21.05
2023-05-12T17:55:24.320Z,21.00
2023-05-12T17:57:52.912Z,20.91
2023-05-12T18:00:21.195Z,20.85
2023-05-12T18:02:49.887Z,20.83
2023-05-12T18:05:18.397Z,20.77
2023-05-12T18:07:46.754Z,20.67
2023-05-12T18:10:14.944Z,20.60
2023-05-12T18:12:43.219Z,20.50
2023-05-12T18:15:12.041Z,20.52
2023-05-12T18:17:40.346Z,20.43
2023-05-12T18:20:09.107Z,20.33
2023-05-12T18:22:37.299Z,20.27
2023-05-12T18:25:05.878Z,20.22
2023-05-12T18:27:34.016Z,20.15
2023-05-12T18:30:02.527Z,19.95
2023-05-12T18:32:31.669Z,19.89
2023-05-12T18:35:00.250Z,19.76
2023-05-12T18:37:28.393Z,19.65
2023-05-12T18:39:58.449Z,19.56
2023-05-12T18:42:26.730Z,19.39
2023-05-12T18:44:54.992Z,19.35
2023-05-12T18:47:23.253Z,19.26
2023-05-12T18:49:51.443Z,19.17
2023-05-12T18:52:20.971Z,19.03
2023-05-12T18:54:49.770Z,18.99
2023-05-12T18:57:18.456Z,18.91
2023-05-12T18:59:46.597Z,18.80
2023-05-12T19:02:14.931Z,18.69
2023-05-12T19:04:43.207Z,18.63
2023-05-12T19:07:15.692Z,18.52
2023-05-12T19:09:44.431Z,18.54
2023-05-12T19:12:12.578Z,18.49
2023-05-12T19:14:41.688Z,18.44
2023-05-12T19:17:10.926Z,18.38
2023-05-12T19:19:39.474Z,18.32
2023-05-12T19:22:07.950Z,18.25
2023-05-12T19:24:38.092Z,18.14
2023-05-12T19:27:06.289Z,18.03
2023-05-12T19:29:34.511Z,17.96
2023-05-12T19:32:03.074Z,17.90
2023-05-12T19:34:31.733Z,17.84
2023-05-12T19:37:03.670Z,17.77
2023-05-12T19:39:31.807Z,17.72
2023-05-12T19:41:59.979Z,17.62
2023-05-12T19:44:30.072Z,17.61
2023-05-12T19:47:04.861Z,17.58
2023-05-12T19:49:36.178Z,17.55
2023-05-12T19:52:06.176Z,17.52
2023-05-12T19:54:34.431Z,17.47
2023-05-12T19:57:02.592Z,17.46
2023-05-12T19:59:30.830Z,17.35
2023-05-12T20:01:59.101Z,17.41
2023-05-12T20:04:28.317Z,17.37
2023-05-12T20:06:57.500Z,17.24
2023-05-12T20:09:26.200Z,17.31
2023-05-12T20:11:54.426Z,17.26
2023-05-12T20:14:23.088Z,17.22
2023-05-12T20:16:51.402Z,17.18
2023-05-12T20:19:19.745Z,17.16
2023-05-12T20:21:47.982Z,17.14
2023-05-12T20:24:16.349Z,17.10
2023-05-12T20:26:44.526Z,17.10
2023-05-12T20:29:12.645Z,17.09
2023-05-12T20:31:40.743Z,17.09
2023-05-12T20:34:08.850Z,17.10
2023-05-12T20:36:36.934Z,17.07
2023-05-12T20:39:05.193Z,17.02
2023-05-12T20:41:33.300Z,16.99
2023-05-12T20:44:01.533Z,16.94
2023-05-12T20:46:31.126Z,16.86
2023-05-12T20:48:59.432Z,16.75
2023-05-12T20:51:28.083Z,16.69
2023-05-12T20:53:56.361Z,16.62
2023-05-12T20:56:24.916Z,16.52
2023-05-12T20:58:53.151Z,16.41
2023-05-12T21:01:21.356Z,16.33
2023-05-12T21:03:49.700Z,16.17
2023-05-12T21:06:18.335Z,16.18
2023-05-12T21:08:46.884Z,16.14
2023-05-12T21:11:16.306Z,16.13
2023-05-12T21:13:46.233Z,16.14
2023-05-12T21:16:15.283Z,16.13
2023-05-12T21:18:43.833Z,16.17
2023-05-12T21:21:12.034Z,16.18
2023-05-12T21:23:40.665Z,16.20
2023-05-12T21:26:10.524Z,16.19
2023-05-12T21:28:38.631Z,16.20
2023-05-12T21:31:06.796Z,16.19
2023-05-12T21:33:35.040Z,16.18
2023-05-12T21:36:03.569Z,16.16
2023-05-12T21:38:32.864Z,16.15
2023-05-12T21:41:00.988Z,16.11
2023-05-12T21:43:29.136Z,15.89
2023-05-12T21:46:02.064Z,15.85
2023-05-12T21:48:30.465Z,15.75
2023-05-12T21:51:02.964Z,15.56
2023-05-12T21:53:31.235Z,15.43
2023-05-12T21:55:59.352Z,15.31
2023-05-12T21:58:28.326Z,15.17
2023-05-12T22:00:56.516Z,15.05
2023-05-12T22:03:25.525Z,14.88
2023-05-12T22:05:53.782Z,14.79
2023-05-12T22:08:22.020Z,14.67
2023-05-12T22:10:50.257Z,14.53
2023-05-12T22:13:19.318Z,14.42
2023-05-12T22:15:47.514Z,14.33
2023-05-12T22:18:15.720Z,14.26
2023-05-12T22:20:43.864Z,14.20
2023-05-12T22:23:12.128Z,14.16
2023-05-12T22:25:40.269Z,14.18
2023-05-12T22:28:08.402Z,14.18
2023-05-12T22:30:36.826Z,14.15
2023-05-12T22:33:05.100Z,14.12
2023-05-12T22:35:33.499Z,14.05
2023-05-12T22:38:01.850Z,14.00
2023-05-12T22:40:30.811Z,13.93
2023-05-12T22:42:59.284Z,13.89
2023-05-12T22:45:28.375Z,13.84
2023-05-12T22:47:56.802Z,13.77
2023-05-12T22:50:25.194Z,13.73
2023-05-12T22:52:58.075Z,13.61
2023-05-12T22:55:30.470Z,13.67
2023-05-12T22:58:00.171Z,13.65
2023-05-12T23:00:28.430Z,13.62
2023-05-12T23:02:56.655Z,13.57
2023-05-12T23:05:24.973Z,13.52
2023-05-12T23:07:53.272Z,13.50
2023-05-12T23:10:21.688Z,13.43
2023-05-12T23:12:50.012Z,13.40
2023-05-12T23:15:18.677Z,13.41
2023-05-12T23:17:46.947Z,13.42
2023-05-12T23:20:15.577Z,13.47
2023-05-12T23:22:43.684Z,13.48
2023-05-12T23:25:11.901Z,13.50
2023-05-12T23:27:40.565Z,13.44
2023-05-12T23:30:10.604Z,13.52
2023-05-12T23:32:39.000Z,13.54
2023-05-12T23:35:08.004Z,13.56
2023-05-12T23:37:36.146Z,13.59
2023-05-12T23:40:05.315Z,13.59
2023-05-12T23:42:33.408Z,13.59
2023-05-12T23:45:01.679Z,13.60
2023-05-12T23:47:30.179Z,13.58
2023-05-12T23:49:58.451Z,13.47
2023-05-12T23:52:26.654Z,13.58
2023-05-12T23:54:54.804Z,13.56
2023-05-12T23:57:22.961Z,13.55
2023-05-12T23:59:51.247Z,13.56
